TimeCST,TemperatureF,Dew PointF,Humidity,Sea Level PressureIn,VisibilityMPH,Wind Direction,Wind SpeedMPH,Gust SpeedMPH,PrecipitationIn,Events,Conditions,WindDirDegrees,DateUTC
12:53 AM,26.1,16.0,66,30.06,10.0,West,12.7,-,N/A,,Clear,270,2013-02-13 06:53:00
1:53 AM,25.0,16.0,69,30.06,10.0,West,15.0,-,N/A,,Clear,280,2013-02-13 07:53:00
2:53 AM,25.0,15.1,66,30.06,10.0,West,12.7,-,N/A,,Clear,280,2013-02-13 08:53:00
3:53 AM,25.0,15.1,66,30.04,10.0,West,13.8,-,N/A,,Clear,280,2013-02-13 09:53:00
4:53 AM,24.1,15.1,69,30.05,10.0,West,8.1,-,N/A,,Clear,280,2013-02-13 10:53:00
5:53 AM,23.0,12.9,65,30.06,10.0,West,6.9,-,N/A,,Clear,270,2013-02-13 11:53:00
6:53 AM,23.0,12.9,65,30.07,10.0,West,10.4,-,N/A,,Clear,280,2013-02-13 12:53:00
7:53 AM,21.9,12.0,66,30.08,10.0,West,5.8,-,N/A,,Clear,270,2013-02-13 13:53:00
8:53 AM,25.0,12.9,60,30.08,10.0,WNW,5.8,-,N/A,,Clear,290,2013-02-13 14:53:00
9:53 AM,28.0,16.0,61,30.07,10.0,WNW,9.2,-,N/A,,Clear,290,2013-02-13 15:53:00
10:53 AM,34.0,23.0,64,30.07,10.0,WNW,4.6,-,N/A,,Clear,300,2013-02-13 16:53:00
11:53 AM,36.0,25.0,64,30.04,10.0,SSW,4.6,-,N/A,,Clear,210,2013-02-13 17:53:00
12:53 PM,37.0,28.0,70,30.02,10.0,SSW,6.9,-,N/A,,Clear,210,2013-02-13 18:53:00
1:53 PM,39.0,23.0,53,30.00,10.0,South,8.1,-,N/A,,Clear,190,2013-02-13 19:53:00
2:53 PM,39.0,21.0,49,29.97,10.0,South,10.4,-,N/A,,Clear,190,2013-02-13 20:53:00
3:53 PM,39.9,25.0,55,29.96,10.0,South,10.4,-,N/A,,Clear,180,2013-02-13 21:53:00
4:53 PM,42.1,28.9,60,29.94,10.0,South,9.2,-,N/A,,Clear,190,2013-02-13 22:53:00
5:53 PM,39.9,30.0,68,29.95,10.0,South,5.8,-,N/A,,Clear,180,2013-02-13 23:53:00
6:53 PM,35.1,28.9,78,29.98,10.0,Calm,Calm,-,N/A,,Clear,0,2013-02-14 00:53:00
7:53 PM,32.0,26.1,79,30.00,10.0,Calm,Calm,-,N/A,,Clear,0,2013-02-14 01:53:00
8:53 PM,33.1,26.1,75,30.01,10.0,Calm,Calm,-,N/A,,Clear,0,2013-02-14 02:53:00
9:53 PM,30.0,25.0,82,30.01,10.0,Calm,Calm,-,N/A,,Clear,0,2013-02-14 03:53:00
10:53 PM,34.0,26.1,73,30.00,10.0,West,8.1,-,N/A,,Clear,270,2013-02-14 04:53:00
11:53 PM,33.1,25.0,72,30.01,10.0,West,9.2,-,N/A,,Clear,270,2013-02-14 05:53:00